createdAt,value
2022-10-18T03:11:02.479Z,9.57
2022-10-18T03:14:04.914Z,9.57
2022-10-18T03:17:07.045Z,9.03
2022-10-18T03:20:09.902Z,9.05
2022-10-18T03:23:11.951Z,9.03
2022-10-18T03:26:14.320Z,9.01
2022-10-18T03:29:16.364Z,8.98
2022-10-18T03:32:19.478Z,8.95
2022-10-18T03:35:22.038Z,8.97
2022-10-18T03:38:24.354Z,8.94
2022-10-18T03:41:26.946Z,8.87
2022-10-18T03:44:29.297Z,8.84
2022-10-18T03:47:31.415Z,8.82
2022-10-18T03:50:33.778Z,8.80
2022-10-18T03:53:35.837Z,8.76
2022-10-18T03:56:38.166Z,8.79
2022-10-18T03:59:40.259Z,8.77
2022-10-18T04:02:42.647Z,8.73
2022-10-18T04:05:46.413Z,8.71
2022-10-18T04:08:48.491Z,8.70
2022-10-18T04:11:51.633Z,8.72
2022-10-18T04:14:55.554Z,8.68
2022-10-18T04:17:58.375Z,8.66
2022-10-18T04:21:00.442Z,8.71
2022-10-18T04:24:02.853Z,8.44
2022-10-18T04:27:05.718Z,8.50
2022-10-18T04:30:08.516Z,8.43
2022-10-18T04:33:10.575Z,8.47
2022-10-18T04:36:12.901Z,8.31
2022-10-18T04:39:15.081Z,8.38
2022-10-18T04:42:17.382Z,8.34
2022-10-18T04:45:19.421Z,8.31
2022-10-18T04:48:21.709Z,8.35
2022-10-18T04:51:23.809Z,8.33
2022-10-18T04:54:27.957Z,8.41
2022-10-18T04:57:30.867Z,8.43
2022-10-18T05:00:36.520Z,8.45
2022-10-18T05:03:41.847Z,8.33
2022-10-18T05:06:44.208Z,8.35
2022-10-18T05:09:46.282Z,8.48
2022-10-18T05:12:49.266Z,8.43
2022-10-18T05:15:51.767Z,8.42
2022-10-18T05:18:54.359Z,8.44
2022-10-18T05:21:56.414Z,8.46
2022-10-18T05:24:58.790Z,8.49
2022-10-18T05:28:06.292Z,8.66
2022-10-18T05:31:13.360Z,8.50
2022-10-18T05:34:16.164Z,8.54
2022-10-18T05:37:18.906Z,8.55
2022-10-18T05:40:21.026Z,8.57
2022-10-18T05:43:23.557Z,8.62
2022-10-18T05:46:25.614Z,8.68
2022-10-18T05:49:27.941Z,8.77
2022-10-18T05:52:30.299Z,8.84
2022-10-18T05:55:32.920Z,8.95
2022-10-18T05:58:35.519Z,9.06
2022-10-18T06:01:39.818Z,9.23
2022-10-18T06:04:42.293Z,9.40
2022-10-18T06:07:44.415Z,9.62
2022-10-18T06:10:46.779Z,9.96
2022-10-18T06:13:50.506Z,10.34
2022-10-18T06:16:53.080Z,10.62
2022-10-18T06:19:55.125Z,10.76
2022-10-18T06:22:57.455Z,10.96
2022-10-18T06:26:01.840Z,11.18
2022-10-18T06:29:04.234Z,11.33
2022-10-18T06:32:07.826Z,11.38
2022-10-18T06:35:10.230Z,11.41
2022-10-18T06:38:12.296Z,11.52
2022-10-18T06:41:14.828Z,11.54
2022-10-18T06:44:17.402Z,11.56
2022-10-18T06:47:19.735Z,11.52
2022-10-18T06:50:21.804Z,11.68
2022-10-18T06:53:29.101Z,11.72
2022-10-18T06:56:31.321Z,11.81
2022-10-18T06:59:33.634Z,12.00
2022-10-18T07:02:37.351Z,12.08
2022-10-18T07:05:39.951Z,12.20
2022-10-18T07:08:42.727Z,12.32
2022-10-18T07:11:45.069Z,12.40
2022-10-18T07:14:47.141Z,12.39
2022-10-18T07:17:50.170Z,12.62
2022-10-18T07:20:52.229Z,12.85
2022-10-18T07:23:54.797Z,13.10
2022-10-18T07:26:56.874Z,13.17
2022-10-18T07:29:59.189Z,13.28
2022-10-18T07:33:01.225Z,13.38
2022-10-18T07:36:05.883Z,13.87
2022-10-18T07:39:08.265Z,14.31
2022-10-18T07:42:10.584Z,14.52
2022-10-18T07:45:13.611Z,14.52
2022-10-18T07:48:15.919Z,14.21
2022-10-18T07:51:20.567Z,14.02
2022-10-18T07:54:22.898Z,13.98
2022-10-18T07:57:24.930Z,13.90
2022-10-18T08:00:27.241Z,13.93
2022-10-18T08:03:29.603Z,13.98
2022-10-18T08:06:31.658Z,13.95
2022-10-18T08:09:34.045Z,13.99
2022-10-18T08:12:36.096Z,14.27
2022-10-18T08:15:38.412Z,14.27
2022-10-18T08:18:41.067Z,14.21
2022-10-18T08:21:43.362Z,14.29
2022-10-18T08:24:45.422Z,14.31
2022-10-18T08:27:47.739Z,14.42
2022-10-18T08:30:49.791Z,14.59
2022-10-18T08:33:52.227Z,14.71
2022-10-18T08:36:54.307Z,14.94
2022-10-18T08:39:56.617Z,15.26
2022-10-18T08:46:49.413Z,15.43
2022-10-18T08:49:56.462Z,15.39
2022-10-18T08:53:05.204Z,15.31
2022-10-18T08:56:14.593Z,15.48
2022-10-18T08:59:16.927Z,15.81
2022-10-18T09:02:24.794Z,16.29
2022-10-18T09:05:36.002Z,16.28
2022-10-18T09:08:46.101Z,16.40
2022-10-18T09:12:13.218Z,16.27
2022-10-18T09:15:25.840Z,16.36
2022-10-18T09:18:54.664Z,16.12
2022-10-18T09:22:13.154Z,16.13
2022-10-18T09:25:21.381Z,16.06
2022-10-18T09:28:42.762Z,16.25
2022-10-18T09:32:04.645Z,16.28
2022-10-18T09:35:29.522Z,16.50
2022-10-18T09:38:37.765Z,16.63
2022-10-18T09:41:43.558Z,16.60
2022-10-18T09:44:51.103Z,16.59
2022-10-18T09:48:18.738Z,16.80
2022-10-18T09:51:25.405Z,17.25
2022-10-18T09:54:33.340Z,17.52
2022-10-18T09:57:58.554Z,17.53
2022-10-18T10:01:01.233Z,17.52
2022-10-18T10:04:03.649Z,17.69
2022-10-18T10:07:11.593Z,17.90
2022-10-18T10:10:16.970Z,18.93
2022-10-18T10:13:26.025Z,20.97
2022-10-18T10:16:28.475Z,22.69
2022-10-18T10:19:33.522Z,21.80
2022-10-18T10:22:41.642Z,20.60
2022-10-18T10:25:43.789Z,20.29
2022-10-18T10:28:48.833Z,20.01
2022-10-18T10:32:03.625Z,22.95
2022-10-18T10:35:34.006Z,26.83
2022-10-18T10:38:44.376Z,30.29
2022-10-18T10:41:55.830Z,31.55
2022-10-18T10:44:58.204Z,30.49
2022-10-18T10:48:07.302Z,31.53
2022-10-18T10:51:11.027Z,29.01
2022-10-18T10:54:20.363Z,28.16
2022-10-18T10:57:25.821Z,31.03
2022-10-18T11:00:35.502Z,34.92
2022-10-18T11:03:46.772Z,37.71
2022-10-18T11:06:59.913Z,38.15
2022-10-18T11:10:15.428Z,37.54
2022-10-18T11:13:45.604Z,40.97
2022-10-18T11:17:25.177Z,43.03
2022-10-18T11:20:33.472Z,43.23
2022-10-18T11:23:38.382Z,44.20
2022-10-18T11:26:55.116Z,42.79
2022-10-18T11:30:26.653Z,42.14
2022-10-18T11:34:03.955Z,41.07
2022-10-18T11:37:51.634Z,39.78
2022-10-18T11:41:19.424Z,38.53
2022-10-18T11:44:38.145Z,36.55
2022-10-18T11:48:18.238Z,31.58
2022-10-18T11:52:06.862Z,25.50
2022-10-18T11:55:30.318Z,23.19
2022-10-18T11:58:41.207Z,21.98
2022-10-18T12:02:21.049Z,21.15
2022-10-18T12:05:25.133Z,20.86
2022-10-18T12:08:39.859Z,20.99
2022-10-18T12:11:56.006Z,20.77
2022-10-18T12:15:20.611Z,20.73
2022-10-18T12:18:25.952Z,20.68
2022-10-18T12:21:31.251Z,20.71
2022-10-18T12:24:35.564Z,20.62
2022-10-18T12:27:45.421Z,20.67
2022-10-18T12:31:18.946Z,20.62
2022-10-18T12:34:40.905Z,20.51
2022-10-18T12:37:49.059Z,20.62
2022-10-18T12:40:53.881Z,20.63
2022-10-18T12:44:04.767Z,20.54
2022-10-18T12:47:06.901Z,20.42
2022-10-18T12:50:27.790Z,20.26
2022-10-18T12:53:31.622Z,20.35
2022-10-18T12:56:37.903Z,20.28
2022-10-18T12:59:40.406Z,20.30
2022-10-18T13:02:42.631Z,20.33
2022-10-18T13:05:56.231Z,20.47
2022-10-18T13:09:21.451Z,20.42
2022-10-18T13:12:23.428Z,20.12
2022-10-18T13:15:50.101Z,20.26
2022-10-18T13:18:59.580Z,20.44
2022-10-18T13:22:10.613Z,20.47
2022-10-18T13:25:29.158Z,20.43
2022-10-18T13:29:01.107Z,20.36
2022-10-18T13:32:24.088Z,20.24
2022-10-18T13:36:00.096Z,20.19
2022-10-18T13:39:05.846Z,20.26
2022-10-18T13:42:14.082Z,20.28
2022-10-18T13:45:31.400Z,20.26
2022-10-18T13:48:33.663Z,20.28
2022-10-18T13:51:52.216Z,20.16
2022-10-18T13:55:19.553Z,20.22
2022-10-18T13:58:49.292Z,20.21
2022-10-18T14:02:10.700Z,20.06
2022-10-18T14:05:25.189Z,19.99
2022-10-18T14:08:37.515Z,19.92
2022-10-18T14:11:46.300Z,19.95
2022-10-18T14:15:10.109Z,19.90
2022-10-18T14:18:18.291Z,19.72
2022-10-18T14:21:31.422Z,19.76
2022-10-18T14:24:34.562Z,19.70
2022-10-18T14:27:37.057Z,19.56
2022-10-18T14:30:59.346Z,19.43
2022-10-18T14:34:01.547Z,19.47
2022-10-18T14:37:03.927Z,19.43
2022-10-18T14:40:06.303Z,19.37
2022-10-18T14:43:19.477Z,19.15
2022-10-18T14:46:28.954Z,18.89
2022-10-18T14:49:33.475Z,18.93
2022-10-18T14:52:35.973Z,19.01
2022-10-18T14:55:38.982Z,18.91
2022-10-18T14:58:42.207Z,18.75
2022-10-18T15:02:24.832Z,18.66
2022-10-18T15:05:27.282Z,18.65
2022-10-18T15:08:37.635Z,18.57
2022-10-18T15:11:41.447Z,18.52
2022-10-18T15:14:45.767Z,18.41
